Harborton, VA (23389)

8:39 PM EDT on September 24, 2016 (GMT -0400)
Mount Prospect | | Change Station

Elev 30 ft 37.70 °N, 75.75 °W | Updated 37 seconds ago

Overcast
Overcast
67.5 °F
Feels Like 67.5 °F
N
2.0
Wind Variable Wind from NE
Gusts 8.0 mph

Today
High -- | Low -- °F
--% Chance of Precip.
Yesterday
High -- | Low -- °F
Precip. -- in
Pressure 30.10 in
Visibility 10.0 miles
Clouds Overcast 1100 ft
Dew Point 64 °F
Humidity 90%
Rainfall 0.00 in
Snow Depth Not available.
6:52 AM 6:56 PM
Waning Crescent, 33% visible
METAR KMFV 250035Z AUTO 03004KT 10SM OVC011 20/17 A3010 RMK AO2 T02000170
Pressure 30.10 in
Visibility 10.0 miles
Clouds Overcast 1100 ft
Dew Point 64 °F
Humidity 90%
Rainfall 0.00 in
Snow Depth Not available.
6:52 AM 6:56 PM
Waning Crescent, 33% visible
METAR KMFV 250035Z AUTO 03004KT 10SM OVC011 20/17 A3010 RMK AO2 T02000170

10-Day Weather Forecast

Almanac

Astronomy

Sep. 24, 2016 Rise Set
Actual Time
Civil Twilight
Nautical Twilight
Astronomical Twilight
Moon
Length of Visible Light
Length of Day
Tomorrow will be .
, % of the Moon is Illuminated

Today's Extremes

State Highs State Lows

Community

WunderPhotos

Upload Photos

1,941,501 photos uploaded!

WunderBlog® & News

Nearby

Air Quality

  Air Quality AQ Index Pollutant
Not available.

Snow Depth

Station Depth Elevation

Earthquake Activity

City Distance Mag. Time & Date
Minimum magnitude displayed is 2.5.

Coastal Water Temperatures

Place Temperature

Stations

Nearby Weather Stations

Station Location Temp. Windchill Dew Point Humidity Wind Precip. Elev Updated Type
                   

Watches & Warnings

There are currently no watches in effect.